createdAt,value
2023-03-27T00:01:13.229Z,3.90
2023-03-27T00:03:41.124Z,3.50
2023-03-27T00:06:12.127Z,3.30
2023-03-27T00:08:39.528Z,4.75
2023-03-27T00:11:08.157Z,7.25
2023-03-27T00:13:49.073Z,7.63
2023-03-27T00:16:20.120Z,7.88
2023-03-27T00:18:47.583Z,8.95
2023-03-27T00:21:14.860Z,8.70
2023-03-27T00:23:42.528Z,11.23
2023-03-27T00:26:11.861Z,11.52
2023-03-27T00:28:39.598Z,12.63
2023-03-27T00:31:11.801Z,13.07
2023-03-27T00:33:39.438Z,13.30
2023-03-27T00:36:07.260Z,13.88
2023-03-27T00:38:34.992Z,14.13
2023-03-27T00:41:03.127Z,13.27
2023-03-27T00:43:35.581Z,13.55
2023-03-27T00:46:27.877Z,12.82
2023-03-27T00:48:56.204Z,13.00
2023-03-27T00:51:26.695Z,13.68
2023-03-27T00:53:55.599Z,12.23
2023-03-27T00:56:24.472Z,12.70
2023-03-27T00:59:13.820Z,13.07
2023-03-27T01:01:42.482Z,11.88
2023-03-27T01:04:10.618Z,12.50
2023-03-27T01:06:39.630Z,11.93
2023-03-27T01:09:09.308Z,11.60
2023-03-27T01:11:56.155Z,11.50
2023-03-27T01:14:46.817Z,12.13
2023-03-27T01:17:17.379Z,11.57
2023-03-27T01:20:07.138Z,12.23
2023-03-27T01:23:06.251Z,12.32
2023-03-27T01:25:57.200Z,11.73
2023-03-27T01:28:31.516Z,12.73
2023-03-27T01:31:38.958Z,11.57
2023-03-27T01:34:09.352Z,11.57
2023-03-27T01:36:58.301Z,11.73
2023-03-27T01:40:03.997Z,12.65
2023-03-27T01:43:12.666Z,12.02
2023-03-27T01:45:51.367Z,11.88
2023-03-27T01:48:18.580Z,12.60
2023-03-27T01:50:51.651Z,12.20
2023-03-27T01:53:40.771Z,12.20
2023-03-27T01:56:18.896Z,12.65
2023-03-27T01:58:50.154Z,13.15
2023-03-27T02:03:57.598Z,12.47
2023-03-27T02:06:30.644Z,12.75
2023-03-27T02:09:08.645Z,13.43
2023-03-27T02:11:39.980Z,12.90
2023-03-27T02:14:20.038Z,13.95
2023-03-27T02:16:55.021Z,13.68
2023-03-27T02:19:30.210Z,13.52
2023-03-27T02:21:57.578Z,13.05
2023-03-27T02:24:25.240Z,13.52
2023-03-27T02:27:01.920Z,13.77
2023-03-27T02:29:45.646Z,13.50
2023-03-27T02:32:56.417Z,13.68
2023-03-27T02:35:50.431Z,13.80
2023-03-27T02:38:39.714Z,12.15
2023-03-27T02:41:20.624Z,13.25
2023-03-27T02:44:06.077Z,13.25
2023-03-27T02:47:16.539Z,12.55
2023-03-27T02:49:51.412Z,12.50
2023-03-27T02:52:26.661Z,12.77
2023-03-27T02:55:21.629Z,12.20
2023-03-27T02:57:56.593Z,11.63
2023-03-27T03:00:42.014Z,12.30
2023-03-27T03:03:44.557Z,11.15
2023-03-27T03:06:34.610Z,11.52
2023-03-27T03:09:06.314Z,11.50
2023-03-27T03:11:35.515Z,12.75
2023-03-27T03:14:03.140Z,13.30
2023-03-27T03:16:31.092Z,13.60
2023-03-27T03:18:58.428Z,15.32
2023-03-27T03:21:25.846Z,15.40
2023-03-27T03:23:57.739Z,14.70
2023-03-27T03:26:27.398Z,14.30
2023-03-27T03:29:01.346Z,13.52
2023-03-27T03:31:44.269Z,16.00
2023-03-27T03:34:16.136Z,16.55
2023-03-27T03:36:45.187Z,17.48
2023-03-27T03:39:12.877Z,16.90
2023-03-27T03:41:41.794Z,16.88
2023-03-27T03:44:10.243Z,16.63
2023-03-27T03:46:39.008Z,17.02
2023-03-27T03:49:06.808Z,17.33
2023-03-27T03:51:35.366Z,16.85
2023-03-27T03:54:05.429Z,17.73
2023-03-27T03:56:34.450Z,16.98
2023-03-27T03:59:02.179Z,17.65
2023-03-27T04:01:30.808Z,17.70
2023-03-27T04:04:02.390Z,17.67
2023-03-27T04:06:46.837Z,18.83
2023-03-27T04:09:14.213Z,17.67
2023-03-27T04:12:01.718Z,17.15
2023-03-27T04:14:44.833Z,17.92
2023-03-27T04:17:34.842Z,17.42
2023-03-27T04:20:06.008Z,18.52
2023-03-27T04:22:38.046Z,18.33
2023-03-27T04:25:08.952Z,18.40
2023-03-27T04:27:36.272Z,18.45
2023-03-27T04:30:22.205Z,18.70
2023-03-27T04:33:23.070Z,18.55
2023-03-27T04:36:06.571Z,17.65
2023-03-27T04:38:55.569Z,19.08
2023-03-27T04:41:23.167Z,18.20
2023-03-27T04:43:50.496Z,19.23
2023-03-27T04:46:18.065Z,18.35
2023-03-27T04:48:51.269Z,18.33
2023-03-27T04:51:38.480Z,18.65
2023-03-27T04:54:07.457Z,18.52
2023-03-27T04:56:41.841Z,17.58
2023-03-27T04:59:09.180Z,18.02
2023-03-27T05:01:36.593Z,18.42
2023-03-27T05:04:31.991Z,18.27
2023-03-27T05:07:13.475Z,18.25
2023-03-27T05:09:42.468Z,18.10
2023-03-27T05:12:10.763Z,17.48
2023-03-27T05:14:48.634Z,17.52
2023-03-27T05:17:32.627Z,18.30
2023-03-27T05:19:59.966Z,17.33
2023-03-27T05:22:27.345Z,17.55
2023-03-27T05:25:04.676Z,17.48
2023-03-27T05:27:32.737Z,17.55
2023-03-27T05:30:00.440Z,17.00
2023-03-27T05:32:27.840Z,16.52
2023-03-27T05:35:18.589Z,17.38
2023-03-27T05:37:47.920Z,18.05
2023-03-27T05:40:25.811Z,17.75
2023-03-27T05:42:54.897Z,17.80
2023-03-27T05:45:26.125Z,17.58
2023-03-27T05:47:56.222Z,17.65
2023-03-27T05:50:27.103Z,17.35
2023-03-27T05:53:04.417Z,17.48
2023-03-27T05:55:41.098Z,17.75
2023-03-27T05:58:11.692Z,18.47
2023-03-27T06:00:42.791Z,18.58
2023-03-27T06:03:13.995Z,19.17
2023-03-27T06:06:12.157Z,19.52
2023-03-27T06:08:42.217Z,18.88
2023-03-27T06:11:15.357Z,17.80
2023-03-27T06:13:46.846Z,16.92
2023-03-27T06:16:25.900Z,17.60
2023-03-27T06:19:19.374Z,18.10
2023-03-27T06:21:51.473Z,19.83
2023-03-27T06:24:18.862Z,21.80
2023-03-27T06:26:46.338Z,22.40
2023-03-27T06:29:14.091Z,21.63
2023-03-27T06:31:48.003Z,20.65
2023-03-27T06:34:38.413Z,21.63
2023-03-27T06:37:29.366Z,21.70
2023-03-27T06:39:57.663Z,21.05
2023-03-27T06:42:26.117Z,21.70
2023-03-27T06:45:07.303Z,19.27
2023-03-27T06:47:58.773Z,19.85
2023-03-27T06:50:44.931Z,19.90
2023-03-27T06:53:26.398Z,19.73
2023-03-27T06:55:56.730Z,18.17
2023-03-27T06:58:25.681Z,18.58
2023-03-27T07:00:53.413Z,17.92
2023-03-27T07:03:22.697Z,17.63
2023-03-27T07:06:03.660Z,16.45
2023-03-27T07:08:45.448Z,16.05
2023-03-27T07:11:14.485Z,16.63
2023-03-27T07:13:48.807Z,16.23
2023-03-27T07:16:23.551Z,14.05
2023-03-27T07:18:51.004Z,14.50
2023-03-27T07:21:18.607Z,13.77
2023-03-27T07:23:46.326Z,14.20
2023-03-27T07:26:17.547Z,13.43
2023-03-27T07:28:54.903Z,13.57
2023-03-27T07:31:35.050Z,12.00
2023-03-27T07:34:11.799Z,13.00
2023-03-27T07:36:59.855Z,10.60
2023-03-27T07:39:27.430Z,10.77
2023-03-27T07:41:55.344Z,11.40
2023-03-27T07:44:31.015Z,10.75
2023-03-27T07:47:05.526Z,10.35
2023-03-27T07:49:38.866Z,10.23
2023-03-27T07:52:11.085Z,8.35
2023-03-27T07:54:59.076Z,7.97
2023-03-27T07:57:54.421Z,6.68
2023-03-27T08:00:27.914Z,6.80
2023-03-27T08:03:11.666Z,6.88
2023-03-27T08:05:43.849Z,7.43
2023-03-27T08:08:13.941Z,8.20
2023-03-27T08:10:46.404Z,8.20
2023-03-27T08:13:15.432Z,7.40
2023-03-27T08:15:43.330Z,8.10
2023-03-27T08:18:21.536Z,8.57
2023-03-27T08:20:49.729Z,7.28
2023-03-27T08:23:17.115Z,7.15
2023-03-27T08:26:05.570Z,7.30
2023-03-27T08:28:39.955Z,7.38
2023-03-27T08:31:15.954Z,5.90
2023-03-27T08:33:44.686Z,6.10
2023-03-27T08:36:19.961Z,5.18
2023-03-27T08:38:47.564Z,7.38
2023-03-27T08:41:27.005Z,6.38
2023-03-27T08:44:20.028Z,6.30
2023-03-27T08:47:11.281Z,2.90
2023-03-27T08:49:54.359Z,1.85
2023-03-27T08:53:02.744Z,1.70
2023-03-27T08:55:40.572Z,1.83
2023-03-27T08:58:21.827Z,1.70
2023-03-27T09:01:04.735Z,1.40
2023-03-27T09:03:45.629Z,1.60
2023-03-27T09:06:27.833Z,1.67
2023-03-27T09:09:34.454Z,1.60
2023-03-27T09:12:33.382Z,1.60
2023-03-27T09:15:11.705Z,1.48
2023-03-27T09:17:48.291Z,1.50
2023-03-27T09:20:20.653Z,1.45
2023-03-27T09:22:54.789Z,1.40
2023-03-27T09:25:35.727Z,1.77
2023-03-27T09:28:51.386Z,1.40
2023-03-27T09:31:36.466Z,1.40
2023-03-27T09:34:13.685Z,1.27
2023-03-27T09:36:42.205Z,2.20
2023-03-27T09:39:17.207Z,1.60
2023-03-27T09:41:49.046Z,1.48
2023-03-27T09:44:25.884Z,1.05
2023-03-27T09:47:17.865Z,1.35
2023-03-27T09:49:54.736Z,1.60
2023-03-27T09:52:40.706Z,1.85
2023-03-27T09:55:31.875Z,1.60
2023-03-27T09:58:40.259Z,1.70
2023-03-27T10:01:26.508Z,1.92
2023-03-27T10:03:59.490Z,1.90
2023-03-27T10:07:02.275Z,1.63
2023-03-27T10:09:42.867Z,1.42
2023-03-27T10:12:19.822Z,1.33
2023-03-27T10:14:52.836Z,1.60
2023-03-27T10:17:37.477Z,0.95
2023-03-27T10:20:15.893Z,0.90
2023-03-27T10:22:54.713Z,0.60
2023-03-27T10:25:38.982Z,0.90
2023-03-27T10:28:34.311Z,0.98
2023-03-27T10:31:31.265Z,0.70
2023-03-27T10:34:39.957Z,0.70
2023-03-27T10:37:31.785Z,0.80
2023-03-27T10:40:22.120Z,0.73
2023-03-27T10:43:04.251Z,1.08
2023-03-27T10:45:47.966Z,1.00
2023-03-27T10:48:39.279Z,1.00
2023-03-27T10:51:19.088Z,1.08
2023-03-27T10:54:00.136Z,1.20
2023-03-27T10:56:52.830Z,1.40
2023-03-27T10:59:40.619Z,1.40
2023-03-27T11:02:22.748Z,1.20
2023-03-27T11:05:23.695Z,1.35
2023-03-27T11:08:15.801Z,1.00
2023-03-27T11:10:45.427Z,0.80
2023-03-27T11:13:23.348Z,0.65
2023-03-27T11:16:04.267Z,0.60
2023-03-27T11:19:18.000Z,0.88
2023-03-27T11:22:16.821Z,0.90
2023-03-27T11:25:14.033Z,2.15
2023-03-27T11:27:58.408Z,1.23
2023-03-27T11:30:51.223Z,0.63
2023-03-27T11:33:52.829Z,0.70
2023-03-27T11:36:34.933Z,0.90
2023-03-27T11:39:35.938Z,0.50
2023-03-27T11:42:18.931Z,0.80
2023-03-27T11:44:48.829Z,0.60
2023-03-27T11:47:42.963Z,0.30
2023-03-27T11:50:12.301Z,0.30
2023-03-27T11:52:53.180Z,0.20
2023-03-27T11:55:43.185Z,3.03
2023-03-27T11:58:48.770Z,0.35
2023-03-27T12:01:39.657Z,0.20
2023-03-27T12:04:19.960Z,0.35
2023-03-27T12:07:09.824Z,0.20
2023-03-27T12:10:00.536Z,0.20
2023-03-27T12:13:38.565Z,1.10
2023-03-27T12:16:34.659Z,0.30
2023-03-27T12:19:34.235Z,0.50
2023-03-27T12:22:44.712Z,0.47
2023-03-27T12:26:09.593Z,0.55
2023-03-27T12:29:29.356Z,0.50
2023-03-27T12:33:00.307Z,0.60
2023-03-27T12:35:35.856Z,0.20
2023-03-27T12:38:08.450Z,0.40
2023-03-27T12:40:37.781Z,0.22
2023-03-27T12:43:10.939Z,0.20
2023-03-27T12:45:44.273Z,0.30
2023-03-27T12:48:20.949Z,0.20
2023-03-27T12:50:56.457Z,0.20
2023-03-27T12:53:28.015Z,0.30
2023-03-27T12:56:19.445Z,0.10
2023-03-27T12:58:54.653Z,0.20
2023-03-27T13:01:51.675Z,0.32
2023-03-27T13:04:57.369Z,0.30
2023-03-27T13:07:35.997Z,0.10
2023-03-27T13:10:16.224Z,0.25
2023-03-27T13:12:49.606Z,0.20
2023-03-27T13:15:36.026Z,0.13
2023-03-27T13:18:24.478Z,0.20
2023-03-27T13:21:00.654Z,0.40
2023-03-27T13:23:45.982Z,0.20
2023-03-27T13:26:45.490Z,0.20
2023-03-27T13:29:20.792Z,2.45
2023-03-27T13:31:59.076Z,0.57
2023-03-27T13:34:42.169Z,0.30
2023-03-27T13:37:14.903Z,0.30
2023-03-27T13:39:59.421Z,0.20
2023-03-27T13:43:02.068Z,0.20
2023-03-27T13:45:41.575Z,0.20
2023-03-27T13:48:54.815Z,0.40
2023-03-27T13:51:47.867Z,0.40
2023-03-27T13:54:47.137Z,0.50
2023-03-27T13:57:37.324Z,0.70
2023-03-27T14:00:29.544Z,0.40
2023-03-27T14:03:23.826Z,0.68
2023-03-27T14:06:48.128Z,0.10
2023-03-27T14:09:33.017Z,0.20
2023-03-27T14:12:54.439Z,0.20
2023-03-27T14:15:56.977Z,0.38
2023-03-27T14:18:50.304Z,0.40
2023-03-27T14:21:35.564Z,0.40
2023-03-27T14:24:22.133Z,0.50
2023-03-27T14:26:54.983Z,0.50
2023-03-27T14:29:23.342Z,0.50
2023-03-27T14:31:52.096Z,0.60
2023-03-27T14:34:33.244Z,0.50
2023-03-27T14:37:41.883Z,0.43
2023-03-27T14:40:33.631Z,0.35
2023-03-27T14:43:07.201Z,0.30
2023-03-27T14:45:40.792Z,0.60
2023-03-27T14:48:23.864Z,0.65
2023-03-27T14:50:55.524Z,0.50
2023-03-27T14:53:28.264Z,0.60
2023-03-27T14:56:42.657Z,0.50
2023-03-27T14:59:46.569Z,0.90
2023-03-27T15:02:35.020Z,0.80
2023-03-27T15:05:12.117Z,0.77
2023-03-27T15:07:43.982Z,1.10
2023-03-27T15:10:31.672Z,0.90
2023-03-27T15:13:26.237Z,0.88
2023-03-27T15:15:59.291Z,1.10
2023-03-27T15:19:12.341Z,0.82
2023-03-27T15:21:57.015Z,0.80
2023-03-27T15:24:41.855Z,0.95
2023-03-27T15:27:20.090Z,1.10
2023-03-27T15:29:53.586Z,1.08
2023-03-27T15:32:22.282Z,1.25
2023-03-27T15:34:58.086Z,0.90
2023-03-27T15:37:32.957Z,0.90
2023-03-27T15:40:15.603Z,0.60
2023-03-27T15:42:51.930Z,0.75
2023-03-27T15:45:23.170Z,0.60
2023-03-27T15:48:18.330Z,0.60
2023-03-27T15:51:00.640Z,0.70
2023-03-27T15:53:31.263Z,0.68
2023-03-27T15:56:00.685Z,1.60
2023-03-27T15:58:34.462Z,0.80
2023-03-27T16:01:18.575Z,0.70
2023-03-27T16:03:48.404Z,0.60
2023-03-27T16:06:26.713Z,0.63
2023-03-27T16:08:55.150Z,0.90
2023-03-27T16:11:54.094Z,0.60
2023-03-27T16:14:31.837Z,0.57
2023-03-27T16:17:08.616Z,3.80
2023-03-27T16:19:49.653Z,2.60
2023-03-27T16:22:23.520Z,0.38
2023-03-27T16:24:51.544Z,0.40
2023-03-27T16:27:22.977Z,1.40
2023-03-27T16:29:53.805Z,1.00
2023-03-27T16:32:22.441Z,0.80
2023-03-27T16:34:53.162Z,0.55
2023-03-27T16:37:25.186Z,0.43
2023-03-27T16:39:54.470Z,0.60
2023-03-27T16:42:26.070Z,0.52
2023-03-27T16:47:23.149Z,1.00
2023-03-27T16:50:09.865Z,0.57
2023-03-27T16:52:38.604Z,0.50
2023-03-27T16:55:07.709Z,0.40
2023-03-27T16:57:36.391Z,0.40
2023-03-27T17:00:05.484Z,0.30
2023-03-27T17:02:34.807Z,0.40
2023-03-27T17:05:04.712Z,0.47
2023-03-27T17:07:32.334Z,0.55
2023-03-27T17:10:00.823Z,0.55
2023-03-27T17:12:31.198Z,0.75
2023-03-27T17:14:58.624Z,0.50
2023-03-27T17:17:27.631Z,0.47
2023-03-27T17:19:55.027Z,0.50
2023-03-27T17:22:22.349Z,0.30
2023-03-27T17:24:57.023Z,0.40
2023-03-27T17:27:26.542Z,0.57
2023-03-27T17:29:56.164Z,0.50
2023-03-27T17:32:25.512Z,1.10
2023-03-27T17:34:53.817Z,0.70
2023-03-27T17:37:22.251Z,0.80
2023-03-27T17:39:49.888Z,1.00
2023-03-27T17:42:17.629Z,0.50
2023-03-27T17:44:45.446Z,0.50
2023-03-27T17:47:13.722Z,0.28
2023-03-27T17:49:43.142Z,0.50
2023-03-27T17:52:12.268Z,0.50
2023-03-27T17:54:40.342Z,0.70
2023-03-27T17:57:07.898Z,0.40
2023-03-27T17:59:36.395Z,0.57
2023-03-27T18:02:03.914Z,0.40
2023-03-27T18:04:31.444Z,0.40
2023-03-27T18:06:59.113Z,0.55
2023-03-27T18:09:26.704Z,0.60
2023-03-27T18:11:54.105Z,0.70
2023-03-27T18:14:21.445Z,1.00
2023-03-27T18:16:48.982Z,0.90
2023-03-27T18:19:16.390Z,0.60
2023-03-27T18:21:43.761Z,0.90
2023-03-27T18:24:11.207Z,0.80
2023-03-27T18:26:38.615Z,0.60
2023-03-27T18:29:05.999Z,0.55
2023-03-27T18:31:33.381Z,0.85
2023-03-27T18:34:01.095Z,1.83
2023-03-27T18:36:28.600Z,0.50
2023-03-27T18:38:56.583Z,0.50
2023-03-27T18:41:24.231Z,0.80
2023-03-27T18:43:51.587Z,0.85
2023-03-27T18:46:19.175Z,0.82
2023-03-27T18:48:49.044Z,0.82
2023-03-27T18:51:19.735Z,0.70
2023-03-27T18:53:47.029Z,0.60
2023-03-27T18:56:14.392Z,0.70
2023-03-27T18:58:42.219Z,0.68
2023-03-27T19:01:10.426Z,0.90
2023-03-27T19:03:39.613Z,0.60
2023-03-27T19:06:09.569Z,0.60
2023-03-27T19:08:38.000Z,0.70
2023-03-27T19:11:06.411Z,0.70
2023-03-27T19:13:52.261Z,0.60
2023-03-27T19:16:31.008Z,0.60
2023-03-27T19:19:17.356Z,0.90
2023-03-27T19:22:09.483Z,0.70
2023-03-27T19:24:44.055Z,0.60
2023-03-27T19:27:23.128Z,54.70
2023-03-27T19:29:53.100Z,27.85
2023-03-27T19:32:21.155Z,2.00
2023-03-27T19:34:48.500Z,1.10
2023-03-27T19:37:16.140Z,0.82
2023-03-27T19:39:43.470Z,0.88
2023-03-27T19:42:11.019Z,16.48
2023-03-27T19:44:38.482Z,5.38
2023-03-27T19:47:07.517Z,1.23
2023-03-27T19:49:36.162Z,45.53
2023-03-27T19:52:22.753Z,2.70
2023-03-27T19:54:50.287Z,0.88
2023-03-27T19:57:17.688Z,0.90
2023-03-27T19:59:45.391Z,0.60
2023-03-27T20:02:13.102Z,0.80
2023-03-27T20:04:40.513Z,0.60
2023-03-27T20:07:08.077Z,0.60
2023-03-27T20:09:36.792Z,0.75
2023-03-27T20:12:05.451Z,0.90
2023-03-27T20:14:32.813Z,1.00
2023-03-27T20:17:00.270Z,0.80
2023-03-27T20:19:30.431Z,1.02
2023-03-27T20:22:00.190Z,1.00
2023-03-27T20:24:29.023Z,0.88
2023-03-27T20:26:59.570Z,1.23
2023-03-27T20:29:27.164Z,0.80
2023-03-27T20:31:54.823Z,2.10
2023-03-27T20:34:24.070Z,4.35
2023-03-27T20:36:54.920Z,4.80
2023-03-27T20:39:47.246Z,4.75
2023-03-27T20:42:17.012Z,3.17
2023-03-27T20:44:45.928Z,2.72
2023-03-27T20:47:14.970Z,2.33
2023-03-27T20:49:45.568Z,1.33
2023-03-27T20:52:15.672Z,1.20
2023-03-27T20:54:43.130Z,0.82
2023-03-27T20:57:12.274Z,1.08
2023-03-27T20:59:39.692Z,1.30
2023-03-27T21:02:07.170Z,1.33
2023-03-27T21:04:34.715Z,22.75
2023-03-27T21:07:02.079Z,2.58
2023-03-27T21:09:29.364Z,0.77
2023-03-27T21:11:56.893Z,0.90
2023-03-27T21:14:24.367Z,0.75
2023-03-27T21:16:51.803Z,0.95
2023-03-27T21:19:23.002Z,0.80
2023-03-27T21:21:50.457Z,0.77
2023-03-27T21:24:19.455Z,0.80
2023-03-27T21:26:48.271Z,0.80
2023-03-27T21:29:15.666Z,0.63
2023-03-27T21:31:43.229Z,1.10
2023-03-27T21:34:10.923Z,0.82
2023-03-27T21:36:38.748Z,0.75
2023-03-27T21:39:06.087Z,0.80
2023-03-27T21:41:33.473Z,0.80
2023-03-27T21:44:00.834Z,0.90
2023-03-27T21:46:28.467Z,1.00
2023-03-27T21:48:55.878Z,0.85
2023-03-27T21:51:23.269Z,0.80
2023-03-27T21:53:50.713Z,0.88
2023-03-27T21:56:17.987Z,0.73
2023-03-27T21:58:45.327Z,0.70
2023-03-27T22:01:12.727Z,0.70
2023-03-27T22:03:40.729Z,0.90
2023-03-27T22:06:12.902Z,0.80
2023-03-27T22:08:43.277Z,0.73
2023-03-27T22:11:12.102Z,0.80
2023-03-27T22:13:39.961Z,0.65
2023-03-27T22:16:12.634Z,0.80
2023-03-27T22:18:40.505Z,0.73
2023-03-27T22:21:23.033Z,0.63
2023-03-27T22:23:51.357Z,0.70
2023-03-27T22:26:20.406Z,0.80
2023-03-27T22:28:47.974Z,0.60
2023-03-27T22:31:15.957Z,0.77
2023-03-27T22:33:43.306Z,0.57
2023-03-27T22:36:11.776Z,0.90
2023-03-27T22:38:39.613Z,0.60
2023-03-27T22:41:08.766Z,0.80
2023-03-27T22:43:36.746Z,0.80
2023-03-27T22:46:10.115Z,0.85
2023-03-27T22:48:37.442Z,0.80
2023-03-27T22:51:05.233Z,0.80
2023-03-27T22:53:33.100Z,0.82
2023-03-27T22:56:02.201Z,1.33
2023-03-27T22:58:30.519Z,2.58
2023-03-27T23:00:57.974Z,2.85
2023-03-27T23:03:26.697Z,2.50
2023-03-27T23:05:54.777Z,2.35
2023-03-27T23:08:27.264Z,2.90
2023-03-27T23:10:56.010Z,2.38
2023-03-27T23:13:24.760Z,2.17
2023-03-27T23:15:52.425Z,1.35
2023-03-27T23:18:27.227Z,1.00
2023-03-27T23:20:59.512Z,0.85
2023-03-27T23:23:28.161Z,1.05
2023-03-27T23:25:57.752Z,0.73
2023-03-27T23:28:29.113Z,1.08
2023-03-27T23:30:59.523Z,1.20
2023-03-27T23:33:28.614Z,1.58
2023-03-27T23:36:08.708Z,1.23
2023-03-27T23:38:37.466Z,1.85
2023-03-27T23:41:06.808Z,1.30
2023-03-27T23:43:34.866Z,1.40
2023-03-27T23:46:03.966Z,1.40
2023-03-27T23:48:31.920Z,1.38
2023-03-27T23:50:59.335Z,1.33
2023-03-27T23:53:28.217Z,0.90
2023-03-27T23:55:57.510Z,0.85
2023-03-27T23:58:28.804Z,0.80
